Time;durP1;ratioP1;P1;durP2;ratioP2;P2;SDS_P1;SDS_P2;PMS_P1;PMS_P2;Temp;Humidity;BMP_temperature;BMP_pressure;BME280_temperature;BME280_humidity;BME280_pressure;Samples;Min_cycle;Max_cycle;Signal;HPM_P1;HPM_P2
2023/06/16 00:02:18;;;;;;;4.20;2.65;;;14.00;99.90;;;12.63;100.00;97727.63;4982088;28;20046;-74
2023/06/16 00:04:45;;;;;;;7.88;3.42;;;14.00;99.90;;;12.43;100.00;97735.56;4977255;28;20054;-74
2023/06/16 00:07:12;;;;;;;7.32;3.13;;;14.00;99.90;;;12.33;100.00;97738.59;4980906;28;20212;-75
2023/06/16 00:09:39;;;;;;;9.30;3.38;;;13.90;99.90;;;12.41;100.00;97732.22;4982364;28;20141;-74
2023/06/16 00:12:07;;;;;;;9.52;3.40;;;13.80;99.90;;;12.26;100.00;97732.00;4974485;28;20511;-74
2023/06/16 00:14:34;;;;;;;6.95;3.22;;;13.70;99.90;;;12.13;100.00;97733.47;4981194;28;20441;-74
2023/06/16 00:17:03;;;;;;;5.80;3.25;;;13.70;99.90;;;12.30;100.00;97737.91;4977283;28;20585;-74
2023/06/16 00:19:31;;;;;;;7.50;3.03;;;13.60;99.90;;;12.49;100.00;97736.13;4978498;28;20232;-74
2023/06/16 00:21:59;;;;;;;9.57;3.42;;;13.70;99.90;;;12.46;100.00;97736.28;5011596;28;20046;-73
2023/06/16 00:24:27;;;;;;;9.50;2.90;;;13.70;99.90;;;12.30;100.00;97733.53;4977032;28;20065;-74
2023/06/16 00:26:57;;;;;;;8.25;3.50;;;13.70;99.90;;;12.16;100.00;97741.16;4975685;28;20110;-74
2023/06/16 00:29:24;;;;;;;8.00;3.47;;;13.70;99.90;;;11.96;100.00;97744.66;4983548;28;20073;-74
2023/06/16 00:31:51;;;;;;;6.72;3.13;;;13.50;99.90;;;11.87;100.00;97742.47;4979835;28;20130;-74
2023/06/16 00:34:19;;;;;;;7.20;3.08;;;13.40;99.90;;;11.98;100.00;97737.66;4977632;28;20109;-74
2023/06/16 00:36:46;;;;;;;7.20;3.22;;;13.40;99.90;;;12.07;100.00;97736.38;4975932;28;20486;-74
2023/06/16 00:39:13;;;;;;;7.45;3.28;;;13.40;99.90;;;12.24;100.00;97735.59;4976589;28;20148;-74
2023/06/16 00:41:40;;;;;;;5.95;3.00;;;13.40;99.90;;;12.25;100.00;97726.88;4990960;28;20123;-74
2023/06/16 00:44:07;;;;;;;12.02;3.83;;;13.40;99.90;;;12.22;100.00;97727.84;4976950;28;20518;-74
2023/06/16 00:46:36;;;;;;;6.85;3.00;;;13.50;99.90;;;12.06;100.00;97735.50;4983612;28;20108;-74
2023/06/16 00:49:05;;;;;;;6.50;3.10;;;13.40;99.90;;;12.13;100.00;97734.34;4975818;28;20407;-73
2023/06/16 00:51:32;;;;;;;6.15;3.03;;;13.40;99.90;;;11.98;100.00;97732.44;4987494;28;20112;-73
2023/06/16 00:54:00;;;;;;;5.85;3.55;;;13.40;99.90;;;11.98;100.00;97742.00;4982579;28;20126;-74
2023/06/16 00:56:27;;;;;;;9.38;3.35;;;13.40;99.90;;;11.83;100.00;97735.69;4983297;28;20081;-74
2023/06/16 00:58:56;;;;;;;6.07;2.97;;;13.30;99.90;;;11.67;100.00;97733.78;4984563;28;20053;-74
2023/06/16 01:01:28;;;;;;;7.95;2.97;;;13.20;99.90;;;11.60;100.00;97734.97;4982073;28;20054;-74
2023/06/16 01:03:57;;;;;;;7.30;2.97;;;13.10;99.90;;;11.56;100.00;97738.59;4969712;28;20046;-74
2023/06/16 01:06:47;;;;;;;7.20;2.95;;;13.00;99.90;;;11.52;100.00;97731.88;4985778;28;20666;-73
2023/06/16 01:09:55;;;;;;;5.47;2.83;;;13.00;99.90;;;11.44;100.00;97742.59;4971120;28;20176;-74
2023/06/16 01:12:57;;;;;;;7.20;3.17;;;12.90;99.90;;;11.48;100.00;97740.72;4966991;28;20054;-74
2023/06/16 01:15:28;;;;;;;9.77;3.22;;;12.90;99.90;;;11.49;100.00;97743.25;4983766;28;20101;-74
2023/06/16 01:18:01;;;;;;;8.38;3.35;;;12.90;99.90;;;11.52;100.00;97744.88;4984731;28;20109;-74
2023/06/16 01:21:08;;;;;;;4.50;3.05;;;12.90;99.90;;;11.49;100.00;97743.25;5025959;28;20061;-74
2023/06/16 01:24:15;;;;;;;5.45;2.50;;;12.90;99.90;;;11.41;100.00;97737.53;4975069;28;20516;-74
2023/06/16 01:26:49;;;;;;;6.13;3.45;;;12.90;99.90;;;11.37;100.00;97737.72;4947345;28;20051;-74
2023/06/16 01:29:21;;;;;;;5.32;3.03;;;12.80;99.90;;;11.44;100.00;97742.59;4962550;28;20114;-74
2023/06/16 01:31:51;;;;;;;7.43;3.72;;;12.80;99.90;;;11.38;100.00;97742.00;4966990;28;20070;-74
2023/06/16 01:34:19;;;;;;;6.30;3.58;;;12.70;99.90;;;11.34;100.00;97743.91;5011155;28;20065;-74
2023/06/16 01:36:48;;;;;;;6.05;2.72;;;12.70;99.90;;;11.38;100.00;97742.88;4978741;28;20439;-74
2023/06/16 01:39:18;;;;;;;6.00;2.83;;;12.70;99.90;;;11.30;100.00;97734.56;4982099;28;20051;-74
2023/06/16 01:41:45;;;;;;;7.00;2.92;;;12.70;99.90;;;11.30;100.00;97737.16;4987435;28;20078;-74
2023/06/16 01:44:13;;;;;;;5.70;2.90;;;12.70;99.90;;;11.24;100.00;97735.69;4984649;28;20065;-74
2023/06/16 01:46:41;;;;;;;5.03;2.40;;;12.70;99.90;;;11.27;100.00;97735.53;4985607;28;20154;-74
2023/06/16 01:49:08;;;;;;;5.43;3.20;;;12.60;99.90;;;11.29;100.00;97733.72;4985379;28;20069;-73
2023/06/16 01:51:37;;;;;;;8.82;3.55;;;12.60;99.90;;;11.27;100.00;97737.28;4978909;28;20434;-73
2023/06/16 01:54:04;;;;;;;7.20;2.40;;;12.60;99.90;;;11.28;100.00;97739.81;4986056;28;20050;-76
2023/06/16 01:56:32;;;;;;;7.45;3.05;;;12.60;99.90;;;11.23;100.00;97738.34;4982914;28;20129;-74
2023/06/16 01:58:59;;;;;;;6.63;3.60;;;12.60;99.90;;;11.08;100.00;97737.22;4982732;28;20519;-73
2023/06/16 02:01:48;;;;;;;5.88;3.10;;;12.50;99.90;;;10.99;100.00;97742.78;4975586;28;20053;-75
2023/06/16 02:04:19;;;;;;;5.65;3.20;;;12.40;99.90;;;10.93;100.00;97738.72;4981607;28;20101;-75
2023/06/16 02:07:11;;;;;;;6.05;3.17;;;12.30;99.90;;;10.79;100.00;97746.22;4980196;28;20105;-76
2023/06/16 02:09:40;;;;;;;5.45;3.08;;;12.30;99.90;;;10.79;100.00;97741.88;4984736;28;20573;-75
2023/06/16 02:12:11;;;;;;;6.40;2.78;;;12.20;99.90;;;10.76;100.00;97741.97;4969366;28;20539;-75
2023/06/16 02:14:40;;;;;;;5.88;3.17;;;12.20;99.90;;;10.73;100.00;97736.09;4979863;28;20101;-75
2023/06/16 02:17:09;;;;;;;7.57;3.55;;;12.20;99.90;;;10.76;100.00;97741.13;4983682;28;20074;-76
2023/06/16 02:19:38;;;;;;;6.05;3.35;;;12.10;99.90;;;10.74;100.00;97743.81;4978151;28;20046;-75
2023/06/16 02:22:06;;;;;;;9.93;3.60;;;12.20;99.90;;;10.69;100.00;97745.75;4978325;28;20089;-75
2023/06/16 02:24:34;;;;;;;8.95;3.20;;;12.20;99.90;;;10.75;100.00;97740.31;4982990;28;20135;-75
2023/06/16 02:27:05;;;;;;;8.30;3.33;;;12.10;99.90;;;10.77;100.00;97748.03;5010829;28;20050;-76
2023/06/16 02:29:32;;;;;;;9.98;3.15;;;12.10;99.90;;;10.79;100.00;97744.47;4977685;28;20507;-76
2023/06/16 02:31:59;;;;;;;4.80;3.10;;;12.10;99.90;;;10.78;100.00;97744.53;4985863;28;20124;-75
2023/06/16 02:34:26;;;;;;;7.25;2.75;;;12.10;99.90;;;10.97;100.00;97748.06;4978923;28;20088;-75
2023/06/16 02:36:53;;;;;;;8.23;2.83;;;12.20;99.90;;;10.91;100.00;97737.09;4979212;28;20404;-76
2023/06/16 02:39:21;;;;;;;10.23;3.80;;;12.20;99.90;;;10.68;100.00;97739.72;4981676;28;20042;-75
2023/06/16 02:41:49;;;;;;;6.95;3.22;;;12.10;99.90;;;10.44;100.00;97744.09;4982489;28;20143;-75
2023/06/16 02:44:16;;;;;;;8.93;3.30;;;12.10;99.90;;;10.38;100.00;97749.56;4986254;28;20043;-75
2023/06/16 02:46:43;;;;;;;7.40;3.17;;;11.90;99.90;;;10.21;100.00;97759.69;4980605;28;20538;-75
2023/06/16 02:49:12;;;;;;;11.05;3.47;;;11.80;99.90;;;10.15;100.00;97765.97;4980484;28;20053;-75
2023/06/16 02:51:39;;;;;;;6.65;3.40;;;11.70;99.90;;;10.25;100.00;97769.06;4995844;28;20066;-75
2023/06/16 02:54:06;;;;;;;7.10;3.45;;;11.70;99.90;;;10.51;100.00;97772.44;4978909;28;20132;-75
2023/06/16 02:56:33;;;;;;;6.50;4.40;;;11.70;99.90;;;10.23;100.00;97781.25;4978843;28;20055;-75
2023/06/16 02:59:00;;;;;;;6.82;3.35;;;11.80;99.90;;;10.41;100.00;97777.97;4978196;28;20058;-75
2023/06/16 03:01:28;;;;;;;9.25;3.65;;;11.80;99.90;;;10.50;100.00;97769.00;4980929;28;20082;-75
2023/06/16 03:03:56;;;;;;;4.88;2.70;;;11.80;99.90;;;10.64;100.00;97758.91;5010816;28;20054;-75
2023/06/16 03:06:24;;;;;;;7.30;3.72;;;11.80;99.90;;;10.54;100.00;97764.53;4979561;28;20809;-75
2023/06/16 03:08:51;;;;;;;5.50;2.75;;;11.80;99.90;;;10.59;100.00;97760.84;5008741;28;20054;-75
2023/06/16 03:11:20;;;;;;;6.72;3.20;;;11.80;99.90;;;10.40;100.00;97770.25;4973985;28;20050;-75
2023/06/16 03:13:47;;;;;;;8.80;3.38;;;11.80;99.90;;;10.30;100.00;97774.09;4977029;28;20578;-75
2023/06/16 03:16:16;;;;;;;5.35;3.33;;;11.70;99.90;;;10.20;100.00;97771.84;4979858;28;20117;-76
2023/06/16 03:18:44;;;;;;;5.85;3.38;;;11.70;99.90;;;10.11;100.00;97768.75;4977994;28;20057;-75
2023/06/16 03:21:11;;;;;;;10.23;3.88;;;11.60;99.90;;;10.00;100.00;97769.16;4979282;28;21818;-75
2023/06/16 03:23:44;;;;;;;5.65;3.28;;;11.50;99.90;;;10.06;100.00;97771.53;5010661;28;20050;-75
2023/06/16 03:26:13;;;;;;;8.90;3.47;;;11.50;99.90;;;9.95;100.00;97777.09;4981084;28;20057;-75
2023/06/16 03:28:41;;;;;;;5.80;3.30;;;11.50;99.90;;;9.96;100.00;97771.00;5006010;28;20046;-75
2023/06/16 03:31:10;;;;;;;6.25;3.67;;;11.40;99.90;;;9.75;100.00;97772.63;4979521;28;20433;-75
2023/06/16 03:33:38;;;;;;;6.40;2.95;;;11.30;99.90;;;9.87;100.00;97776.50;4981479;28;20043;-75
2023/06/16 03:36:06;;;;;;;8.90;3.95;;;11.30;99.90;;;9.96;100.00;97778.78;4980606;28;20047;-75
2023/06/16 03:38:34;;;;;;;5.43;3.20;;;11.30;99.90;;;10.03;100.00;97784.56;4984741;28;20815;-75
2023/06/16 03:41:01;;;;;;;8.55;3.55;;;11.40;99.90;;;10.11;100.00;97779.13;4991495;28;20133;-75
2023/06/16 03:43:28;;;;;;;6.80;3.85;;;11.40;99.90;;;10.20;100.00;97783.97;4980936;28;20145;-75
2023/06/16 03:45:55;;;;;;;7.05;3.42;;;11.40;99.90;;;10.24;100.00;97782.91;4996401;28;20059;-75
2023/06/16 03:48:23;;;;;;;6.03;3.33;;;11.40;99.90;;;10.23;100.00;97771.72;4984276;28;20133;-75
2023/06/16 03:50:52;;;;;;;7.68;3.83;;;11.50;99.90;;;10.22;100.00;97783.00;4980329;28;20057;-74
2023/06/16 03:53:20;;;;;;;10.00;4.03;;;11.50;99.90;;;10.18;100.00;97780.59;4977477;28;20150;-75
2023/06/16 03:55:47;;;;;;;7.93;3.33;;;11.50;99.90;;;10.27;100.00;97782.81;4983425;28;20057;-75
2023/06/16 03:58:17;;;;;;;9.73;3.85;;;11.50;99.90;;;10.16;100.00;97784.97;4978596;28;20046;-75
2023/06/16 04:00:45;;;;;;;7.03;3.72;;;11.50;99.90;;;10.30;100.00;97785.31;4983271;28;20050;-75
2023/06/16 04:03:14;;;;;;;8.15;3.55;;;11.50;99.90;;;10.18;100.00;97785.78;4977540;28;20554;-74
2023/06/16 04:05:42;;;;;;;6.72;3.95;;;11.50;99.90;;;10.03;100.00;97784.56;4974080;28;20125;-75
2023/06/16 04:08:09;;;;;;;6.90;3.78;;;11.50;99.90;;;10.07;100.00;97795.69;4981071;28;20058;-74
2023/06/16 04:10:38;;;;;;;8.63;3.78;;;11.40;99.90;;;9.93;100.00;97798.81;4975068;28;20484;-74
2023/06/16 04:13:06;;;;;;;8.70;4.38;;;11.50;99.90;;;10.11;100.00;97797.28;4979276;28;20050;-74
2023/06/16 04:15:33;;;;;;;7.60;4.20;;;11.50;99.90;;;10.37;100.00;97796.31;4979379;28;20120;-74
2023/06/16 04:18:00;;;;;;;6.45;3.72;;;11.60;99.90;;;10.49;100.00;97792.41;4977362;28;20996;-75
2023/06/16 04:20:28;;;;;;;12.18;4.13;;;11.60;99.90;;;10.72;100.00;97792.38;4976518;28;20449;-75
2023/06/16 04:22:55;;;;;;;8.57;4.22;;;11.70;99.90;;;11.01;100.00;97785.13;5006918;28;20078;-75
2023/06/16 04:25:22;;;;;;;7.15;3.40;;;11.90;99.90;;;11.29;100.00;97775.28;4980405;28;20054;-75
2023/06/16 04:27:52;;;;;;;10.50;4.10;;;12.10;99.90;;;11.17;100.00;97774.94;5011372;28;20641;-75
2023/06/16 04:30:24;;;;;;;7.43;3.55;;;12.20;99.90;;;10.98;100.00;97777.47;4981588;28;20054;-75
2023/06/16 04:32:51;;;;;;;7.18;4.03;;;12.20;99.90;;;11.24;100.00;97782.44;4978438;28;20058;-75
2023/06/16 04:35:18;;;;;;;6.57;4.28;;;12.30;99.90;;;11.35;100.00;97776.78;5011043;28;20062;-75
2023/06/16 04:37:45;;;;;;;7.28;3.65;;;12.30;99.90;;;11.51;100.00;97779.56;4982003;28;20126;-76
2023/06/16 04:40:13;;;;;;;7.00;3.95;;;12.40;99.90;;;11.43;100.00;97779.06;4981135;28;20412;-75
2023/06/16 04:42:42;;;;;;;9.15;3.65;;;12.50;99.90;;;11.69;100.00;97777.91;4981061;28;20490;-74
2023/06/16 04:45:10;;;;;;;10.32;3.97;;;12.60;99.90;;;11.88;100.00;97767.56;4981273;28;20042;-75
2023/06/16 04:47:38;;;;;;;8.63;4.25;;;12.70;99.90;;;11.96;100.00;97772.44;4977962;28;20666;-75
2023/06/16 04:50:06;;;;;;;5.78;4.25;;;12.80;99.90;;;12.03;100.00;97769.50;4978163;28;20544;-75
2023/06/16 04:52:37;;;;;;;5.85;3.63;;;12.90;99.90;;;12.29;100.00;97773.53;4979673;28;20134;-74
2023/06/16 04:55:05;;;;;;;6.72;3.72;;;13.00;99.90;;;12.50;100.00;97763.84;4995864;28;20123;-74
2023/06/16 04:57:35;;;;;;;6.82;4.13;;;13.20;99.90;;;12.59;100.00;97765.19;4977798;28;20050;-75
2023/06/16 05:00:07;;;;;;;6.53;3.85;;;13.30;99.90;;;12.83;100.00;97762.31;4980237;28;20483;-75
2023/06/16 05:02:34;;;;;;;5.30;4.15;;;13.40;99.90;;;12.88;100.00;97755.09;4979527;28;20058;-75
2023/06/16 05:05:03;;;;;;;11.40;4.63;;;13.60;99.90;;;13.05;100.00;97752.50;4983548;28;20050;-75
2023/06/16 05:07:31;;;;;;;9.15;5.32;;;13.70;99.90;;;13.26;100.00;97749.75;4994304;28;20058;-75
2023/06/16 05:09:58;;;;;;;9.05;4.72;;;13.90;99.90;;;13.38;100.00;97741.31;4978626;28;20053;-75
2023/06/16 05:12:27;;;;;;;8.02;4.93;;;14.00;99.90;;;13.50;100.00;97752.88;4979477;28;20058;-76
2023/06/16 05:14:54;;;;;;;6.32;4.85;;;14.20;99.90;;;13.75;100.00;97737.66;4978804;28;20057;-75
2023/06/16 05:17:22;;;;;;;6.75;5.30;;;14.30;99.90;;;13.57;100.00;97739.47;4981026;28;20054;-76
2023/06/16 05:19:49;;;;;;;6.57;5.18;;;14.30;99.90;;;13.70;100.00;97737.03;4965038;28;20107;-75
2023/06/16 05:22:23;;;;;;;8.65;5.30;;;14.40;99.90;;;13.81;100.00;97739.94;4981306;28;20739;-74
2023/06/16 05:24:55;;;;;;;10.77;5.65;;;14.40;99.90;;;14.14;100.00;97731.22;5009303;28;20042;-75
2023/06/16 05:27:24;;;;;;;7.65;4.85;;;14.50;99.90;;;14.20;100.00;97736.09;4980995;28;20132;-75
2023/06/16 05:29:53;;;;;;;6.97;4.90;;;14.50;99.90;;;14.49;100.00;97735.44;4981973;28;20076;-74
2023/06/16 05:32:21;;;;;;;6.40;4.40;;;14.60;99.90;;;14.49;100.00;97732.81;4979070;28;20995;-75
2023/06/16 05:34:51;;;;;;;6.70;4.30;;;14.80;99.90;;;14.44;100.00;97731.28;4967375;28;20054;-74
2023/06/16 05:37:20;;;;;;;6.60;4.63;;;14.90;99.90;;;14.86;100.00;97728.97;4992940;28;20054;-74
2023/06/16 05:39:48;;;;;;;5.07;3.45;;;;;;;15.31;100.00;97731.63;4980172;28;20050;-74
2023/06/16 05:42:15;;;;;;;9.27;4.75;;;15.40;99.90;;;15.43;100.00;97729.09;5010322;28;20440;-75
2023/06/16 05:44:44;;;;;;;8.80;5.22;;;15.70;99.90;;;15.57;100.00;97724.81;4975968;28;20119;-75
2023/06/16 05:47:12;;;;;;;7.00;4.60;;;15.90;99.90;;;15.55;100.00;97722.28;4970735;28;20672;-74
2023/06/16 05:49:39;;;;;;;6.68;4.10;;;16.00;99.90;;;15.99;100.00;97728.41;4978808;28;20085;-75
2023/06/16 05:52:07;;;;;;;5.97;3.80;;;16.30;99.90;;;16.38;100.00;97725.06;5007199;28;20565;-75
2023/06/16 05:54:37;;;;;;;8.55;4.53;;;16.50;99.90;;;16.43;100.00;97722.97;4980370;28;20055;-74
2023/06/16 05:57:06;;;;;;;5.32;3.60;;;16.70;99.90;;;16.76;100.00;97719.09;4982982;28;20129;-75
2023/06/16 05:59:36;;;;;;;5.32;3.90;;;16.80;99.90;;;16.81;100.00;97717.06;4976900;28;20046;-75
2023/06/16 06:02:03;;;;;;;5.05;3.42;;;16.80;99.90;;;17.04;100.00;97717.34;4986854;28;20129;-75
2023/06/16 06:04:32;;;;;;;5.75;4.10;;;17.00;99.90;;;17.12;100.00;97720.25;4995424;28;20112;-75
2023/06/16 06:07:03;;;;;;;6.25;3.60;;;17.20;99.90;;;17.39;100.00;97721.97;4979775;28;20124;-76
2023/06/16 06:09:30;;;;;;;5.90;3.90;;;17.50;99.90;;;17.43;100.00;97726.09;4989974;28;20618;-75
2023/06/16 06:11:57;;;;;;;8.93;3.80;;;17.60;99.90;;;17.71;100.00;97728.47;4987612;28;20458;-75
2023/06/16 06:14:24;;;;;;;7.07;3.50;;;17.90;99.90;;;18.06;100.00;97730.44;4979156;28;20531;-75
2023/06/16 06:16:51;;;;;;;5.55;4.00;;;18.10;99.90;;;18.23;100.00;97723.19;4975214;28;20046;-76
2023/06/16 06:19:19;;;;;;;8.38;3.58;;;18.40;99.90;;;18.31;100.00;97729.53;4974620;28;20113;-75
2023/06/16 06:21:46;;;;;;;6.00;3.88;;;18.60;99.90;;;18.67;100.00;97732.25;4980821;28;20490;-75
2023/06/16 06:24:14;;;;;;;10.10;3.35;;;18.90;99.90;;;18.86;100.00;97742.28;4981070;28;20043;-75
2023/06/16 06:26:43;;;;;;;5.32;2.92;;;19.20;99.90;;;19.08;100.00;97736.28;4997093;28;20545;-76
2023/06/16 06:29:10;;;;;;;8.23;2.80;;;19.30;99.90;;;19.08;100.00;97739.75;4970458;28;20108;-76
2023/06/16 06:31:37;;;;;;;5.80;3.35;;;19.50;99.90;;;19.33;100.00;97744.00;4978005;28;20046;-76
2023/06/16 06:34:04;;;;;;;10.20;3.33;;;19.60;99.90;;;19.48;100.00;97738.53;4977602;28;20065;-75
2023/06/16 06:36:36;;;;;;;7.25;3.05;;;19.80;99.90;;;19.73;100.00;97740.16;5009319;28;20511;-75
2023/06/16 06:39:03;;;;;;;4.47;3.20;;;19.90;99.90;;;19.77;100.00;97733.69;4978834;28;20074;-75
2023/06/16 06:41:33;;;;;;;6.05;2.80;;;20.10;99.90;;;19.53;100.00;97731.13;4979064;28;20385;-76
2023/06/16 06:44:00;;;;;;;6.18;2.97;;;20.10;99.90;;;19.79;100.00;97739.69;4977267;28;20050;-75
2023/06/16 06:46:28;;;;;;;4.57;3.00;;;20.20;99.90;;;19.95;100.00;97737.53;4988769;28;20070;-76
2023/06/16 06:48:55;;;;;;;11.40;3.33;;;20.30;99.90;;;20.16;100.00;97742.06;4977778;28;20082;-76
2023/06/16 06:51:23;;;;;;;7.75;3.30;;;20.50;99.90;;;20.20;100.00;97744.34;4976445;28;20047;-75
2023/06/16 06:53:52;;;;;;;6.60;3.38;;;20.60;99.90;;;20.34;100.00;97745.03;4980033;28;20097;-76
2023/06/16 06:56:19;;;;;;;6.88;3.10;;;20.80;99.90;;;20.45;100.00;97742.38;5010288;28;20126;-76
2023/06/16 06:58:46;;;;;;;5.55;2.72;;;20.90;99.90;;;20.45;100.00;97745.84;4977183;28;20061;-76
2023/06/16 07:01:13;;;;;;;6.75;3.28;;;21.00;99.20;;;20.42;100.00;97747.91;4977275;28;20113;-76
2023/06/16 07:03:40;;;;;;;5.03;2.70;;;21.00;97.70;;;20.58;100.00;97747.56;4991397;28;20432;-76
2023/06/16 07:06:08;;;;;;;5.38;2.65;;;21.10;97.00;;;20.43;100.00;97757.50;4978769;28;20099;-76
2023/06/16 07:08:35;;;;;;;6.20;2.70;;;21.00;95.20;;;20.80;100.00;97751.91;4991806;28;20078;-76
2023/06/16 07:11:02;;;;;;;3.58;2.67;;;21.20;96.10;;;21.01;100.00;97758.09;4976543;28;20051;-76
2023/06/16 07:13:29;;;;;;;6.05;3.22;;;21.40;96.10;;;20.93;100.00;97749.94;4980188;28;20169;-75
2023/06/16 07:15:56;;;;;;;6.32;2.33;;;21.60;94.20;;;21.14;100.00;97751.78;4991995;28;20046;-76
2023/06/16 07:18:23;;;;;;;4.63;2.80;;;21.60;93.90;;;21.27;100.00;97750.63;4978756;28;20054;-75
2023/06/16 07:20:50;;;;;;;5.35;2.85;;;21.70;94.10;;;21.07;100.00;97752.31;4974963;28;20054;-75
2023/06/16 07:23:18;;;;;;;5.45;2.38;;;21.80;93.00;;;21.21;100.00;97750.28;4973510;28;20062;-76
2023/06/16 07:25:45;;;;;;;5.53;2.85;;;21.90;93.10;;;21.21;100.00;97752.94;4974300;28;20082;-76
2023/06/16 07:28:12;;;;;;;4.18;2.80;;;21.90;92.40;;;21.13;100.00;97760.66;4974495;28;20054;-76
2023/06/16 07:30:39;;;;;;;7.55;2.78;;;22.00;92.40;;;21.26;100.00;97751.59;5000495;28;20606;-76
2023/06/16 07:33:06;;;;;;;6.35;2.50;;;21.90;91.80;;;21.09;100.00;97757.44;4977002;28;20143;-73
2023/06/16 07:35:34;;;;;;;6.47;2.78;;;22.00;91.50;;;21.25;100.00;97751.72;5007467;28;20058;-76
2023/06/16 07:38:01;;;;;;;4.30;2.65;;;22.00;91.70;;;21.38;100.00;97755.00;4978307;28;20145;-76
2023/06/16 07:40:28;;;;;;;6.95;2.88;;;22.00;92.80;;;21.64;100.00;97760.75;4977713;28;20081;-76
2023/06/16 07:42:56;;;;;;;4.43;2.70;;;22.10;93.20;;;21.71;100.00;97755.78;5009918;28;20082;-76
2023/06/16 07:45:23;;;;;;;7.70;2.97;;;22.30;93.30;;;21.89;100.00;97753.38;4977871;28;20054;-76
2023/06/16 07:47:50;;;;;;;6.93;2.85;;;22.40;92.10;;;21.89;100.00;97751.56;4975970;28;20137;-76
2023/06/16 07:50:17;;;;;;;7.75;3.38;;;22.50;92.20;;;21.71;100.00;97756.66;4973676;28;20100;-76
2023/06/16 07:52:45;;;;;;;6.50;3.10;;;22.60;91.50;;;21.76;100.00;97758.03;4980922;28;20054;-77
2023/06/16 07:55:12;;;;;;;6.20;3.15;;;22.60;91.00;;;22.04;100.00;97751.22;4979910;28;20055;-74
2023/06/16 07:57:39;;;;;;;6.93;3.00;;;22.60;92.00;;;22.05;100.00;97760.81;4978186;28;20132;-74
2023/06/16 08:00:11;;;;;;;5.32;2.72;;;22.60;91.10;;;22.26;100.00;97750.22;4980105;28;20046;-75
2023/06/16 08:02:39;;;;;;;5.32;2.92;;;22.70;91.50;;;22.27;100.00;97749.25;4979553;28;20128;-75
2023/06/16 08:05:08;;;;;;;6.18;2.95;;;22.90;91.20;;;22.49;100.00;97749.03;4980153;28;20105;-74
2023/06/16 08:07:35;;;;;;;6.50;3.35;;;23.00;90.20;;;22.64;100.00;97746.00;4981459;28;20170;-74
2023/06/16 08:10:04;;;;;;;6.63;2.72;;;23.10;90.10;;;22.83;100.00;97746.03;4982310;28;20491;-74
2023/06/16 08:12:34;;;;;;;5.45;2.63;;;23.30;90.10;;;22.81;100.00;97741.81;4985340;28;20046;-74
2023/06/16 08:15:04;;;;;;;5.85;2.38;;;23.50;87.40;;;22.92;94.66;97750.50;5013769;28;20042;-74
2023/06/16 08:17:31;;;;;;;4.57;2.55;;;23.50;84.50;;;22.81;90.89;97747.13;4980923;28;20145;-74
2023/06/16 08:19:58;;;;;;;5.40;2.60;;;23.50;84.00;;;23.10;95.67;97749.81;4987799;28;20057;-75
2023/06/16 08:22:25;;;;;;;4.80;2.70;;;23.60;85.00;;;22.75;91.75;97748.53;4982823;28;20066;-75
2023/06/16 08:24:52;;;;;;;5.10;2.42;;;23.70;83.30;;;23.22;93.50;97747.84;4978833;28;20807;-76
2023/06/16 08:27:20;;;;;;;4.07;2.10;;;23.70;83.70;;;23.15;84.80;97752.91;4980048;28;20122;-75
2023/06/16 08:29:47;;;;;;;5.80;2.83;;;23.70;81.00;;;22.87;80.17;97746.56;4979887;28;20507;-76
2023/06/16 08:32:15;;;;;;;5.32;3.17;;;23.90;78.70;;;22.94;85.82;97745.91;4978759;28;20212;-75
2023/06/16 08:34:42;;;;;;;7.72;2.50;;;23.80;80.80;;;23.12;88.56;97738.09;4995229;28;20535;-75
2023/06/16 08:37:10;;;;;;;8.23;2.67;;;23.90;81.90;;;23.33;94.37;97751.22;4979941;28;20108;-75
2023/06/16 08:39:55;;;;;;;8.63;3.13;;;23.90;83.70;;;23.62;90.35;97744.16;5006992;28;20427;-75
2023/06/16 08:42:23;;;;;;;10.73;3.15;;;24.10;82.70;;;24.21;91.37;97746.50;4991442;28;20553;-75
2023/06/16 08:44:53;;;;;;;5.28;2.67;;;24.20;83.90;;;24.34;88.07;97743.50;4981884;28;20475;-75
2023/06/16 08:47:20;;;;;;;4.03;2.33;;;24.40;82.30;;;24.49;83.38;97754.47;4995807;28;20066;-75
2023/06/16 08:49:52;;;;;;;15.23;3.13;;;24.40;80.80;;;25.21;82.63;97735.97;4987082;28;20116;-75
2023/06/16 08:52:23;;;;;;;5.93;2.70;;;24.60;81.80;;;25.94;80.88;97738.28;4996553;28;20054;-76
2023/06/16 08:55:13;;;;;;;4.18;2.63;;;24.80;81.50;;;25.65;78.54;97742.06;4979448;28;20065;-76
2023/06/16 08:57:51;;;;;;;4.65;2.42;;;25.20;79.80;;;25.36;78.43;97736.22;4965019;28;20059;-76
2023/06/16 09:00:19;;;;;;;7.25;2.78;;;25.70;79.70;;;24.65;76.38;97742.38;4995113;28;20467;-75
2023/06/16 09:02:56;;;;;;;4.35;2.53;;;25.70;77.10;;;25.13;77.67;97744.63;4980037;28;20070;-75
2023/06/16 09:05:26;;;;;;;6.53;2.80;;;25.70;77.50;;;25.81;75.42;97737.84;4981538;28;20058;-75
2023/06/16 09:07:53;;;;;;;5.50;2.53;;;25.90;76.40;;;26.04;74.44;97739.00;4991916;28;20173;-76
2023/06/16 09:10:20;;;;;;;8.88;2.80;;;26.20;76.10;;;26.35;72.22;97738.47;4996521;28;20050;-76
2023/06/16 09:12:52;;;;;;;5.45;2.65;;;26.50;75.50;;;26.88;71.57;97729.28;4982393;28;20046;-75
2023/06/16 09:15:21;;;;;;;3.78;2.20;;;27.30;74.70;;;27.35;66.25;97735.00;4966964;28;20148;-76
2023/06/16 09:17:49;;;;;;;4.40;2.15;;;27.80;72.00;;;26.39;67.76;97738.97;4983380;28;20051;-76
2023/06/16 09:20:19;;;;;;;6.43;3.25;;;28.20;71.10;;;27.14;66.05;97736.28;4978844;28;20134;-76
2023/06/16 09:22:59;;;;;;;5.57;2.63;;;28.40;70.60;;;27.31;68.76;97731.84;4978338;28;20069;-77
2023/06/16 09:25:32;;;;;;;6.25;2.70;;;28.70;71.10;;;27.63;67.96;97730.13;4976056;28;20050;-76
2023/06/16 09:28:06;;;;;;;7.57;2.60;;;28.60;71.00;;;27.90;70.15;97727.09;4978177;28;20442;-76
2023/06/16 09:30:34;;;;;;;4.53;2.55;;;28.90;71.70;;;27.61;66.96;97724.97;4997761;28;20065;-76
2023/06/16 09:33:02;;;;;;;9.13;2.33;;;29.40;69.10;;;28.17;64.14;97727.69;4981992;28;20077;-76
2023/06/16 09:35:31;;;;;;;3.10;2.00;;;29.70;68.70;;;28.00;64.80;97728.75;4998827;28;20520;-77
2023/06/16 09:38:00;;;;;;;5.05;2.78;;;30.10;68.00;;;27.80;66.00;97723.75;4983453;28;20078;-76
2023/06/16 09:40:33;;;;;;;5.88;2.30;;;29.80;68.40;;;28.30;65.56;97727.94;5007377;28;20050;-77
2023/06/16 09:43:06;;;;;;;4.68;2.40;;;29.50;68.60;;;29.21;64.28;97725.56;4982395;28;20047;-76
2023/06/16 09:45:34;;;;;;;6.20;2.17;;;30.10;68.20;;;29.31;63.25;97707.47;4983573;28;20117;-76
2023/06/16 09:48:05;;;;;;;5.60;2.00;;;30.70;67.70;;;29.65;60.44;97711.47;5006006;28;20136;-77
2023/06/16 09:50:33;;;;;;;5.53;2.22;;;31.20;65.70;;;29.81;57.95;97710.50;5008655;28;20050;-76
2023/06/16 09:53:06;;;;;;;7.72;2.10;;;;;;;28.58;56.59;97722.16;5007624;28;20054;-76
2023/06/16 09:55:39;;;;;;;5.80;2.00;;;30.70;62.50;;;28.70;57.38;97720.75;4977325;28;20104;-77
2023/06/16 09:58:06;;;;;;;4.53;2.58;;;30.10;63.70;;;26.47;57.87;97723.84;4982979;28;20042;-76
2023/06/16 10:00:34;;;;;;;6.70;1.95;;;29.50;63.30;;;26.75;60.98;97715.63;4976806;28;20042;-77
2023/06/16 10:03:04;;;;;;;3.83;2.42;;;28.90;64.40;;;28.16;58.70;97710.81;4996453;28;20054;-76
2023/06/16 10:05:34;;;;;;;4.78;2.42;;;29.10;64.10;;;27.68;59.09;97704.63;5008795;28;20427;-77
2023/06/16 10:08:04;;;;;;;5.03;1.85;;;29.50;64.30;;;28.28;59.52;97713.97;4976425;28;20056;-77
2023/06/16 10:10:33;;;;;;;10.65;2.53;;;29.30;64.90;;;28.90;60.33;97718.44;4976227;28;20404;-75
2023/06/16 10:13:06;;;;;;;9.45;2.20;;;29.50;65.20;;;28.56;58.00;97706.31;4979799;28;20145;-76
2023/06/16 10:15:40;;;;;;;9.40;2.30;;;29.60;63.60;;;28.50;56.54;97715.03;4994840;28;20050;-76
2023/06/16 10:18:08;;;;;;;4.30;2.30;;;29.70;62.80;;;29.03;54.81;97712.50;5007789;28;20100;-76
2023/06/16 10:20:40;;;;;;;4.10;2.22;;;30.20;62.00;;;29.43;52.62;97707.03;4977695;28;20082;-77
2023/06/16 10:23:08;;;;;;;4.32;2.22;;;30.60;61.20;;;30.09;52.64;97702.63;4997417;28;20424;-77
2023/06/16 10:25:38;;;;;;;6.85;2.70;;;30.90;61.00;;;30.94;52.14;97703.84;4977967;28;20059;-77